Georgetown, Alabama
Current Conditions -  °F | °C
As of 11:56 PM on Sunday 25 Jan 2015 (Local Time) from KMOB Reporting Station
Clear Clear  
Wind Chill: 44°   Ceiling: Unl
Heat Index: 46°   Visibility: 10mi
Dew Point: 38°   Wind: 5mph
Humidity: 73%   Direction: 280°W
Pressure: 29.92"   Gusts: NA
Location:  30.9846°N, 88.1229°W
Report Text: KMOB 260556Z AUTO 28004KT 10SM CLR 08/03 A2992 RMK AO2 SLP132 T00780033 10133 20078 401670006 51017
Loading
Personal Weather Stations






























Interactive Weather Map New forecast layout! Learn more

10-Day Weather Forecast

Advertisements
Track Severe Weather on mobile